Time;durP1;ratioP1;P1;durP2;ratioP2;P2;SDS_P1;SDS_P2;PMS_P1;PMS_P2;Temp;Humidity;BMP_temperature;BMP_pressure;BME280_temperature;BME280_humidity;BME280_pressure;Samples;Min_cycle;Max_cycle;Signal;HPM_P1;HPM_P2
2022/03/06 00:01:02;;;;;;;12.40;6.25;;;;;;;;;;6040080;23;20365;-53
2022/03/06 00:03:27;;;;;;;12.27;6.13;;;;;;;;;;6037919;23;20710;-54
2022/03/06 00:05:52;;;;;;;11.27;4.70;;;;;;;;;;6040297;23;20490;-53
2022/03/06 00:08:17;;;;;;;10.75;5.00;;;;;;;;;;6039053;23;20027;-54
2022/03/06 00:10:42;;;;;;;10.30;5.00;;;;;;;;;;6015516;23;20015;-55
2022/03/06 00:13:08;;;;;;;12.98;4.72;;;;;;;;;;6040353;23;20075;-54
2022/03/06 00:15:33;;;;;;;11.00;4.65;;;;;;;;;;6037191;23;20007;-54
2022/03/06 00:17:58;;;;;;;11.32;4.72;;;;;;;;;;6032717;23;20094;-55
2022/03/06 00:20:24;;;;;;;10.57;3.95;;;;;;;;;;6037027;23;20026;-54
2022/03/06 00:22:49;;;;;;;11.27;4.78;;;;;;;;;;6040647;23;20067;-57
2022/03/06 00:25:15;;;;;;;5.82;4.03;;;;;;;;;;6038331;23;20020;-56
2022/03/06 00:27:40;;;;;;;13.50;4.60;;;;;;;;;;6029046;23;20022;-55
2022/03/06 00:30:06;;;;;;;12.95;4.78;;;;;;;;;;6034143;23;20050;-57
2022/03/06 00:32:31;;;;;;;16.52;4.78;;;;;;;;;;6034132;23;20027;-56
2022/03/06 00:34:56;;;;;;;12.75;4.97;;;;;;;;;;6038394;23;20007;-57
2022/03/06 00:37:22;;;;;;;8.57;5.68;;;;;;;;;;6042358;23;20060;-56
2022/03/06 00:39:47;;;;;;;16.35;5.40;;;;;;;;;;6040907;23;20022;-57
2022/03/06 00:42:12;;;;;;;14.85;5.20;;;;;;;;;;6044019;23;20022;-57
2022/03/06 00:44:38;;;;;;;13.80;6.30;;;;;;;;;;6041865;23;20016;-55
2022/03/06 00:47:04;;;;;;;15.20;5.10;;;;;;;;;;6044441;23;20019;-55
2022/03/06 00:49:29;;;;;;;9.82;4.53;;;;;;;;;;6041497;23;20016;-57
2022/03/06 00:51:55;;;;;;;17.17;4.32;;;;;;;;;;6042487;23;20015;-56
2022/03/06 00:54:20;;;;;;;22.58;6.32;;;;;;;;;;6041284;23;20020;-58
2022/03/06 00:56:46;;;;;;;14.02;4.50;;;;;;;;;;6044123;23;20076;-57
2022/03/06 00:59:11;;;;;;;8.45;4.97;;;;;;;;;;6040958;23;20034;-54
2022/03/06 01:01:36;;;;;;;17.90;4.20;;;;;;;;;;6044387;23;20019;-56
2022/03/06 01:04:02;;;;;;;13.07;5.00;;;;;;;;;;6041840;23;20098;-57
2022/03/06 01:06:27;;;;;;;19.98;6.43;;;;;;;;;;6043370;23;20016;-56
2022/03/06 01:08:52;;;;;;;11.90;5.43;;;;;;;;;;6042738;23;20079;-57
2022/03/06 01:11:18;;;;;;;15.77;6.32;;;;;;;;;;6042143;23;20058;-57
2022/03/06 01:13:43;;;;;;;12.70;4.75;;;;;;;;;;6040420;23;20043;-57
2022/03/06 01:16:08;;;;;;;14.68;5.38;;;;;;;;;;6043695;23;20023;-57
2022/03/06 01:18:34;;;;;;;13.13;4.97;;;;;;;;;;6040438;23;20298;-56
2022/03/06 01:20:59;;;;;;;15.63;5.90;;;;;;;;;;6043345;23;20015;-56
2022/03/06 01:23:25;;;;;;;23.65;6.50;;;;;;;;;;6037675;23;20056;-56
2022/03/06 01:25:50;;;;;;;26.35;5.25;;;;;;;;;;6038151;23;20045;-58
2022/03/06 01:28:15;;;;;;;12.07;4.38;;;;;;;;;;6036308;23;20099;-56
2022/03/06 01:30:41;;;;;;;15.55;4.85;;;;;;;;;;6043807;23;20067;-56
2022/03/06 01:33:06;;;;;;;16.38;5.47;;;;;;;;;;6040437;23;20187;-54
2022/03/06 01:35:31;;;;;;;10.23;5.13;;;;;;;;;;6043395;23;20012;-55
2022/03/06 01:37:56;;;;;;;15.57;5.82;;;;;;;;;;6040645;23;20509;-55
2022/03/06 01:40:22;;;;;;;21.38;5.50;;;;;;;;;;6043109;23;20445;-56
2022/03/06 01:42:48;;;;;;;16.67;5.10;;;;;;;;;;6041036;23;20099;-57
2022/03/06 01:45:14;;;;;;;14.43;5.90;;;;;;;;;;6041396;23;20015;-57
2022/03/06 01:47:41;;;;;;;13.43;6.18;;;;;;;;;;6040717;23;20047;-56
2022/03/06 01:50:13;;;;;;;12.13;5.20;;;;;;;;;;6043472;23;20015;-55
2022/03/06 01:52:38;;;;;;;10.68;5.25;;;;;;;;;;6039999;23;20082;-55
2022/03/06 01:55:04;;;;;;;13.57;6.10;;;;;;;;;;6043427;23;20026;-57
2022/03/06 01:57:29;;;;;;;14.40;6.38;;;;;;;;;;6039774;23;20661;-57
2022/03/06 01:59:55;;;;;;;17.55;5.68;;;;;;;;;;6042971;23;20082;-55
2022/03/06 02:02:20;;;;;;;11.23;6.15;;;;;;;;;;6038792;23;20067;-57
2022/03/06 02:04:45;;;;;;;12.68;5.88;;;;;;;;;;6043816;23;20019;-56
2022/03/06 02:07:10;;;;;;;16.58;6.30;;;;;;;;;;6040041;23;20017;-49
2022/03/06 02:09:36;;;;;;;13.45;6.63;;;;;;;;;;6043786;23;20453;-57
2022/03/06 02:14:45;;;;;;;17.45;5.88;;;;;;;;;;6043278;23;20034;-57
2022/03/06 02:17:10;;;;;;;13.68;6.65;;;;;;;;;;6040046;23;20012;-56
2022/03/06 02:19:55;;;;;;;13.98;6.90;;;;;;;;;;6042746;23;20067;-55
2022/03/06 02:22:24;;;;;;;9.75;5.95;;;;;;;;;;6043610;23;20023;-56
2022/03/06 02:24:50;;;;;;;18.20;6.97;;;;;;;;;;6040899;23;20071;-57
2022/03/06 02:27:15;;;;;;;16.08;8.00;;;;;;;;;;6041929;23;20369;-56
2022/03/06 02:29:42;;;;;;;23.23;7.85;;;;;;;;;;6041043;23;20974;-54
2022/03/06 02:32:10;;;;;;;15.05;6.50;;;;;;;;;;6043288;23;20016;-56
2022/03/06 02:34:37;;;;;;;19.73;7.38;;;;;;;;;;6039502;23;20102;-57
2022/03/06 02:37:03;;;;;;;19.13;9.65;;;;;;;;;;6031709;23;20019;-57
2022/03/06 02:39:28;;;;;;;30.80;12.10;;;;;;;;;;6026908;23;20019;-55
2022/03/06 02:41:53;;;;;;;33.42;11.75;;;;;;;;;;6036744;23;20107;-56
2022/03/06 02:44:18;;;;;;;28.73;11.10;;;;;;;;;;6039051;23;20048;-55
2022/03/06 02:46:44;;;;;;;30.67;12.32;;;;;;;;;;6036058;23;20027;-59
2022/03/06 02:49:10;;;;;;;33.22;14.15;;;;;;;;;;6036157;23;20030;-56
2022/03/06 02:51:35;;;;;;;24.83;12.25;;;;;;;;;;6037267;23;20023;-54
2022/03/06 02:54:00;;;;;;;33.05;13.07;;;;;;;;;;6035612;23;20102;-57
2022/03/06 02:56:25;;;;;;;36.78;14.85;;;;;;;;;;6036405;23;20015;-57
2022/03/06 02:58:51;;;;;;;32.58;14.73;;;;;;;;;;6037700;23;20043;-57
2022/03/06 03:01:16;;;;;;;26.15;13.15;;;;;;;;;;6032985;23;20080;-58
2022/03/06 03:03:44;;;;;;;34.78;12.40;;;;;;;;;;6037674;23;20029;-53
2022/03/06 03:06:09;;;;;;;23.88;11.60;;;;;;;;;;6035789;23;20606;-58
2022/03/06 03:08:34;;;;;;;22.65;10.35;;;;;;;;;;6037073;23;20011;-56
2022/03/06 03:10:59;;;;;;;23.90;10.23;;;;;;;;;;6037676;23;20573;-57
2022/03/06 03:13:25;;;;;;;17.35;10.05;;;;;;;;;;6036987;23;20035;-56
2022/03/06 03:15:50;;;;;;;21.15;8.90;;;;;;;;;;6037004;23;20026;-55
2022/03/06 03:18:15;;;;;;;21.05;8.70;;;;;;;;;;6032335;23;20023;-56
2022/03/06 03:20:40;;;;;;;16.83;9.10;;;;;;;;;;6029540;23;20470;-55
2022/03/06 03:23:06;;;;;;;18.60;7.70;;;;;;;;;;6035682;23;20133;-53
2022/03/06 03:25:31;;;;;;;17.13;8.05;;;;;;;;;;6035187;23;20015;-55
2022/03/06 03:27:56;;;;;;;18.33;8.15;;;;;;;;;;6036408;23;20043;-53
2022/03/06 03:30:22;;;;;;;18.27;8.63;;;;;;;;;;6034228;23;20023;-56
2022/03/06 03:32:48;;;;;;;19.83;7.75;;;;;;;;;;6036150;23;20047;-56
2022/03/06 03:35:13;;;;;;;16.17;6.88;;;;;;;;;;6034389;23;20011;-56
2022/03/06 03:37:38;;;;;;;20.67;8.73;;;;;;;;;;6035373;23;20708;-55
2022/03/06 03:40:04;;;;;;;13.02;7.90;;;;;;;;;;6035777;23;20016;-53
2022/03/06 03:42:29;;;;;;;20.70;7.88;;;;;;;;;;6034810;23;20183;-55
2022/03/06 03:44:55;;;;;;;13.70;7.55;;;;;;;;;;6035912;23;20011;-54
2022/03/06 03:47:20;;;;;;;14.80;6.50;;;;;;;;;;6033404;23;20019;-56
2022/03/06 03:49:46;;;;;;;14.32;7.53;;;;;;;;;;6017791;23;20047;-48
2022/03/06 03:52:11;;;;;;;14.73;6.93;;;;;;;;;;6009524;23;20317;-47
2022/03/06 03:54:36;;;;;;;15.65;7.15;;;;;;;;;;6035477;23;20788;-49
2022/03/06 03:57:02;;;;;;;16.38;7.88;;;;;;;;;;6027484;23;20021;-46
2022/03/06 03:59:27;;;;;;;19.20;7.53;;;;;;;;;;6037783;23;20020;-50
2022/03/06 04:01:52;;;;;;;16.95;7.38;;;;;;;;;;6038685;23;20015;-46
2022/03/06 04:04:17;;;;;;;17.05;7.15;;;;;;;;;;6039078;23;20042;-46
2022/03/06 04:06:43;;;;;;;15.35;6.25;;;;;;;;;;6040759;23;20033;-48
2022/03/06 04:09:08;;;;;;;13.77;7.13;;;;;;;;;;6037883;23;20019;-50
2022/03/06 04:11:33;;;;;;;15.40;6.95;;;;;;;;;;6037575;23;20066;-47
2022/03/06 04:13:58;;;;;;;14.75;6.57;;;;;;;;;;6038042;23;20027;-47
2022/03/06 04:16:24;;;;;;;14.25;7.13;;;;;;;;;;6037648;23;20773;-47
2022/03/06 04:18:49;;;;;;;14.43;6.80;;;;;;;;;;6036244;23;20027;-47
2022/03/06 04:21:14;;;;;;;12.73;6.47;;;;;;;;;;6037605;23;20080;-47
2022/03/06 04:23:40;;;;;;;13.38;6.70;;;;;;;;;;6037885;23;20071;-46
2022/03/06 04:26:05;;;;;;;12.55;7.00;;;;;;;;;;6040499;23;20015;-46
2022/03/06 04:28:31;;;;;;;17.00;7.47;;;;;;;;;;6035617;23;20050;-48
2022/03/06 04:30:57;;;;;;;11.35;5.63;;;;;;;;;;6039344;23;20048;-48
2022/03/06 04:33:23;;;;;;;14.15;6.20;;;;;;;;;;6037026;23;20024;-49
2022/03/06 04:35:48;;;;;;;14.00;5.85;;;;;;;;;;6039624;23;20018;-47
2022/03/06 04:38:13;;;;;;;17.77;5.88;;;;;;;;;;6036113;23;20026;-47
2022/03/06 04:40:38;;;;;;;14.55;6.15;;;;;;;;;;6039710;23;20019;-46
2022/03/06 04:43:04;;;;;;;13.48;7.45;;;;;;;;;;6036661;23;20019;-48
2022/03/06 04:45:29;;;;;;;20.13;8.70;;;;;;;;;;6037663;23;20019;-47
2022/03/06 04:47:54;;;;;;;9.52;6.50;;;;;;;;;;6037025;23;20020;-48
2022/03/06 04:50:19;;;;;;;14.18;7.43;;;;;;;;;;6039121;23;20079;-46
2022/03/06 04:52:45;;;;;;;13.30;6.65;;;;;;;;;;6029189;23;20023;-48
2022/03/06 04:55:10;;;;;;;15.32;6.65;;;;;;;;;;6036782;23;20015;-46
2022/03/06 04:57:35;;;;;;;11.48;6.15;;;;;;;;;;6039170;23;20027;-51
2022/03/06 05:00:01;;;;;;;16.48;7.57;;;;;;;;;;6038080;23;20019;-46
2022/03/06 05:02:26;;;;;;;19.10;7.85;;;;;;;;;;6035679;23;20027;-49
2022/03/06 05:04:52;;;;;;;16.77;7.50;;;;;;;;;;6037843;23;20011;-49
2022/03/06 05:07:17;;;;;;;14.77;7.72;;;;;;;;;;6036067;23;20074;-48
2022/03/06 05:09:42;;;;;;;19.08;8.10;;;;;;;;;;6037874;23;20026;-47
2022/03/06 05:12:08;;;;;;;16.92;8.48;;;;;;;;;;6038151;23;20078;-51
2022/03/06 05:14:33;;;;;;;14.73;8.88;;;;;;;;;;6036127;23;20047;-47
2022/03/06 05:16:58;;;;;;;16.13;6.97;;;;;;;;;;6038339;23;20011;-48
2022/03/06 05:19:24;;;;;;;25.77;8.20;;;;;;;;;;6059387;23;20452;-49
2022/03/06 05:21:49;;;;;;;15.73;8.00;;;;;;;;;;6038958;23;20047;-46
2022/03/06 05:24:14;;;;;;;14.68;7.93;;;;;;;;;;6037989;23;20023;-49
2022/03/06 05:26:40;;;;;;;17.17;9.18;;;;;;;;;;6036833;23;20026;-48
2022/03/06 05:29:05;;;;;;;17.80;7.95;;;;;;;;;;6037916;23;20019;-48
2022/03/06 05:31:30;;;;;;;12.65;7.35;;;;;;;;;;6035353;23;20008;-50
2022/03/06 05:33:55;;;;;;;13.27;7.57;;;;;;;;;;6038194;23;20033;-46
2022/03/06 05:36:22;;;;;;;14.27;7.65;;;;;;;;;;6036426;23;20015;-48
2022/03/06 05:38:48;;;;;;;20.15;8.13;;;;;;;;;;6038600;23;20019;-47
2022/03/06 05:41:13;;;;;;;12.93;6.78;;;;;;;;;;6035163;23;20021;-48
2022/03/06 05:43:38;;;;;;;15.43;7.43;;;;;;;;;;6038628;23;20026;-48
2022/03/06 05:46:04;;;;;;;12.57;6.78;;;;;;;;;;6036141;23;20025;-47
2022/03/06 05:48:29;;;;;;;13.90;7.65;;;;;;;;;;6038340;23;20025;-47
2022/03/06 05:50:54;;;;;;;15.20;8.48;;;;;;;;;;6033731;23;20272;-48
2022/03/06 05:53:20;;;;;;;19.70;9.40;;;;;;;;;;6037395;23;20050;-48
2022/03/06 05:55:45;;;;;;;13.27;7.60;;;;;;;;;;6035434;23;20012;-47
2022/03/06 05:58:11;;;;;;;17.70;8.20;;;;;;;;;;6037373;23;20027;-47
2022/03/06 06:00:36;;;;;;;17.10;8.20;;;;;;;;;;6034033;23;20022;-45
2022/03/06 06:03:02;;;;;;;12.57;7.15;;;;;;;;;;6037809;23;20020;-46
2022/03/06 06:05:28;;;;;;;15.68;6.65;;;;;;;;;;6035284;23;20489;-46
2022/03/06 06:07:53;;;;;;;16.65;7.13;;;;;;;;;;6037995;23;20019;-47
2022/03/06 06:10:18;;;;;;;12.05;6.75;;;;;;;;;;6035836;23;20019;-47
2022/03/06 06:12:44;;;;;;;16.75;7.10;;;;;;;;;;6038210;23;20018;-46
2022/03/06 06:15:10;;;;;;;18.58;7.78;;;;;;;;;;6036890;23;20522;-46
2022/03/06 06:17:36;;;;;;;15.18;6.82;;;;;;;;;;6038794;23;20015;-46
2022/03/06 06:20:01;;;;;;;17.65;7.78;;;;;;;;;;6035556;23;20026;-48
2022/03/06 06:22:28;;;;;;;13.98;7.40;;;;;;;;;;6038583;23;20070;-47
2022/03/06 06:24:54;;;;;;;27.20;10.32;;;;;;;;;;6035903;23;20460;-45
2022/03/06 06:27:19;;;;;;;19.60;6.93;;;;;;;;;;6037940;23;20015;-46
2022/03/06 06:29:44;;;;;;;19.13;7.85;;;;;;;;;;6036536;23;20018;-47
2022/03/06 06:32:09;;;;;;;16.85;7.57;;;;;;;;;;6060730;23;20079;-48
2022/03/06 06:34:35;;;;;;;21.00;7.63;;;;;;;;;;6035624;23;20019;-47
2022/03/06 06:37:01;;;;;;;26.98;7.35;;;;;;;;;;6037931;23;20047;-47
2022/03/06 06:39:26;;;;;;;19.90;8.35;;;;;;;;;;6036575;23;20015;-48
2022/03/06 06:41:51;;;;;;;20.70;7.85;;;;;;;;;;6037764;23;20034;-46
2022/03/06 06:44:17;;;;;;;13.93;6.90;;;;;;;;;;6035255;23;20025;-46
2022/03/06 06:46:42;;;;;;;15.65;8.05;;;;;;;;;;6038504;23;20566;-46
2022/03/06 06:49:10;;;;;;;16.85;7.28;;;;;;;;;;6036265;23;20011;-49
2022/03/06 06:51:36;;;;;;;12.90;7.00;;;;;;;;;;6038439;23;20756;-47
2022/03/06 06:54:01;;;;;;;17.77;8.52;;;;;;;;;;6035439;23;20095;-51
2022/03/06 06:56:26;;;;;;;13.10;7.35;;;;;;;;;;6037499;23;20019;-47
2022/03/06 06:58:52;;;;;;;19.55;7.63;;;;;;;;;;6035825;23;20072;-47
2022/03/06 07:01:17;;;;;;;21.10;8.70;;;;;;;;;;6034577;23;20034;-47
2022/03/06 07:03:42;;;;;;;14.77;7.15;;;;;;;;;;6037686;23;20019;-48
2022/03/06 07:06:08;;;;;;;15.38;7.55;;;;;;;;;;6037651;23;20019;-49
2022/03/06 07:08:33;;;;;;;12.50;6.43;;;;;;;;;;6035899;23;20008;-48
2022/03/06 07:10:58;;;;;;;13.93;6.43;;;;;;;;;;6034435;23;20023;-45
2022/03/06 07:13:23;;;;;;;11.40;6.85;;;;;;;;;;6036769;23;20031;-47
2022/03/06 07:15:49;;;;;;;17.20;8.38;;;;;;;;;;6035695;23;20026;-46
2022/03/06 07:18:14;;;;;;;14.27;7.22;;;;;;;;;;6037421;23;20016;-48
2022/03/06 07:20:39;;;;;;;16.92;8.05;;;;;;;;;;6036172;23;20067;-47
2022/03/06 07:23:05;;;;;;;11.95;6.55;;;;;;;;;;6037198;23;20019;-48
2022/03/06 07:25:31;;;;;;;15.45;7.43;;;;;;;;;;6034700;23;20397;-48
2022/03/06 07:27:56;;;;;;;16.92;7.80;;;;;;;;;;6036436;23;20052;-47
2022/03/06 07:30:22;;;;;;;13.23;6.93;;;;;;;;;;6035655;23;20414;-48
2022/03/06 07:32:48;;;;;;;15.82;7.10;;;;;;;;;;6038048;23;20019;-49
2022/03/06 07:35:14;;;;;;;14.73;7.57;;;;;;;;;;6035655;23;20023;-48
2022/03/06 07:37:40;;;;;;;12.77;6.68;;;;;;;;;;6037715;23;20015;-46
2022/03/06 07:40:06;;;;;;;19.98;8.55;;;;;;;;;;6035831;23;20050;-46
2022/03/06 07:42:32;;;;;;;15.90;7.85;;;;;;;;;;6036318;23;20090;-46
2022/03/06 07:44:57;;;;;;;22.38;8.05;;;;;;;;;;6035070;23;20091;-45
2022/03/06 07:47:22;;;;;;;13.48;7.32;;;;;;;;;;6037537;23;20031;-47
2022/03/06 07:49:48;;;;;;;14.70;6.75;;;;;;;;;;6035969;23;20378;-47
2022/03/06 07:52:13;;;;;;;17.20;7.65;;;;;;;;;;6035727;23;20035;-45
2022/03/06 07:54:38;;;;;;;11.27;6.18;;;;;;;;;;6034792;23;20027;-47
2022/03/06 07:57:04;;;;;;;14.35;6.45;;;;;;;;;;6038803;23;20187;-48
2022/03/06 07:59:29;;;;;;;15.35;6.45;;;;;;;;;;6037736;23;20377;-48
2022/03/06 08:01:54;;;;;;;12.95;7.45;;;;;;;;;;6039706;23;20075;-49
2022/03/06 08:04:20;;;;;;;13.25;6.90;;;;;;;;;;6037590;23;20092;-47
2022/03/06 08:06:46;;;;;;;13.23;7.22;;;;;;;;;;6038445;23;20063;-49
2022/03/06 08:09:11;;;;;;;15.02;6.60;;;;;;;;;;6038700;23;20055;-45
2022/03/06 08:11:36;;;;;;;14.63;7.00;;;;;;;;;;6039185;23;20606;-48
2022/03/06 08:14:02;;;;;;;10.55;7.00;;;;;;;;;;6037846;23;20031;-45
2022/03/06 08:16:27;;;;;;;14.90;7.45;;;;;;;;;;6039327;23;20019;-46
2022/03/06 08:18:52;;;;;;;16.02;7.45;;;;;;;;;;6037293;23;20011;-46
2022/03/06 08:21:17;;;;;;;9.18;5.78;;;;;;;;;;6062040;23;20067;-45
2022/03/06 08:23:42;;;;;;;13.57;6.35;;;;;;;;;;6037717;23;20027;-47
2022/03/06 08:26:08;;;;;;;9.32;5.95;;;;;;;;;;6039469;23;20015;-48
2022/03/06 08:28:33;;;;;;;12.88;6.03;;;;;;;;;;6037044;23;20061;-46
2022/03/06 08:30:58;;;;;;;15.23;6.78;;;;;;;;;;6039741;23;20723;-47
2022/03/06 08:33:24;;;;;;;17.52;7.22;;;;;;;;;;6059080;23;20027;-47
2022/03/06 08:35:49;;;;;;;7.88;6.07;;;;;;;;;;6039492;23;20019;-48
2022/03/06 08:38:14;;;;;;;18.83;6.45;;;;;;;;;;6036696;23;20432;-46
2022/03/06 08:40:40;;;;;;;16.35;7.07;;;;;;;;;;6038621;23;20019;-46
2022/03/06 08:43:05;;;;;;;13.32;6.03;;;;;;;;;;6036710;23;20026;-46
2022/03/06 08:45:30;;;;;;;14.02;6.07;;;;;;;;;;6039293;23;20011;-48
2022/03/06 08:47:56;;;;;;;12.63;6.40;;;;;;;;;;6037248;23;20015;-47
2022/03/06 08:50:21;;;;;;;13.05;5.60;;;;;;;;;;6030596;23;20034;-46
2022/03/06 08:52:47;;;;;;;14.63;6.72;;;;;;;;;;6034151;23;20496;-48
2022/03/06 08:55:12;;;;;;;9.23;5.57;;;;;;;;;;6037761;23;20090;-45
2022/03/06 08:57:38;;;;;;;9.52;5.43;;;;;;;;;;6037630;23;20026;-46
2022/03/06 09:00:04;;;;;;;11.23;6.15;;;;;;;;;;6038396;23;20019;-48
2022/03/06 09:02:29;;;;;;;11.85;6.78;;;;;;;;;;6036818;23;20011;-46
2022/03/06 09:04:54;;;;;;;13.02;6.68;;;;;;;;;;6039743;23;20050;-46
2022/03/06 09:07:20;;;;;;;11.93;5.35;;;;;;;;;;6036416;23;20319;-46
2022/03/06 09:09:45;;;;;;;11.57;5.70;;;;;;;;;;6039320;23;20042;-47
2022/03/06 09:12:10;;;;;;;17.08;6.10;;;;;;;;;;6058872;23;20053;-47
2022/03/06 09:14:35;;;;;;;13.65;6.45;;;;;;;;;;6038494;23;20256;-47
2022/03/06 09:17:01;;;;;;;15.32;6.47;;;;;;;;;;6036332;23;20019;-46
2022/03/06 09:19:26;;;;;;;13.02;6.30;;;;;;;;;;6038747;23;20023;-47
2022/03/06 09:21:53;;;;;;;10.80;4.80;;;;;;;;;;6036578;23;20015;-47
2022/03/06 09:24:19;;;;;;;10.15;6.38;;;;;;;;;;6038429;23;20008;-46
2022/03/06 09:26:44;;;;;;;16.80;7.07;;;;;;;;;;6059111;23;20011;-46
2022/03/06 09:29:09;;;;;;;17.38;5.70;;;;;;;;;;6039401;23;20014;-47
2022/03/06 09:31:35;;;;;;;11.32;4.93;;;;;;;;;;6036100;23;20012;-47
2022/03/06 09:34:00;;;;;;;13.43;6.07;;;;;;;;;;6038424;23;20019;-47
2022/03/06 09:36:25;;;;;;;13.80;5.68;;;;;;;;;;6036113;23;20033;-48
2022/03/06 09:38:51;;;;;;;15.45;6.53;;;;;;;;;;6038430;23;20035;-52
2022/03/06 09:41:16;;;;;;;14.73;6.05;;;;;;;;;;6036321;23;20022;-46
2022/03/06 09:43:42;;;;;;;13.05;5.93;;;;;;;;;;6038745;23;20163;-49
2022/03/06 09:46:08;;;;;;;12.20;6.63;;;;;;;;;;6036833;23;20501;-48
2022/03/06 09:48:34;;;;;;;11.85;5.72;;;;;;;;;;6038290;23;20007;-48
2022/03/06 09:51:03;;;;;;;15.00;5.57;;;;;;;;;;6033310;23;20023;-47
2022/03/06 09:53:28;;;;;;;20.92;7.25;;;;;;;;;;6021733;23;20031;-47
2022/03/06 09:55:54;;;;;;;14.75;6.30;;;;;;;;;;6025365;23;20369;-47
2022/03/06 09:58:19;;;;;;;19.40;6.00;;;;;;;;;;6007671;23;20275;-47
2022/03/06 10:00:44;;;;;;;11.38;6.53;;;;;;;;;;6028816;23;20085;-46
2022/03/06 10:03:16;;;;;;;8.68;6.28;;;;;;;;;;6037838;23;20042;-49
2022/03/06 10:05:41;;;;;;;12.90;5.82;;;;;;;;;;6037536;23;20015;-47
2022/03/06 10:08:16;;;;;;;12.77;6.60;;;;;;;;;;6038529;23;20018;-48
2022/03/06 10:10:41;;;;;;;10.43;4.50;;;;;;;;;;6036620;23;20019;-47
2022/03/06 10:13:08;;;;;;;8.73;5.45;;;;;;;;;;6037105;23;20624;-48
2022/03/06 10:15:53;;;;;;;15.07;5.68;;;;;;;;;;6036263;23;20013;-46
2022/03/06 10:18:18;;;;;;;10.27;5.78;;;;;;;;;;6037053;23;20019;-48
2022/03/06 10:20:43;;;;;;;11.60;6.88;;;;;;;;;;6059907;23;20048;-50
2022/03/06 10:23:22;;;;;;;9.05;4.45;;;;;;;;;;6058751;23;20067;-47
2022/03/06 10:25:58;;;;;;;13.02;5.38;;;;;;;;;;6038158;23;20026;-47
2022/03/06 10:28:23;;;;;;;9.32;5.57;;;;;;;;;;6027686;23;20038;-50
2022/03/06 10:30:49;;;;;;;11.82;5.80;;;;;;;;;;6036111;23;20016;-46
2022/03/06 10:33:18;;;;;;;9.82;5.93;;;;;;;;;;6036594;23;20027;-47
2022/03/06 10:35:44;;;;;;;11.67;4.80;;;;;;;;;;6036138;23;20082;-46
2022/03/06 10:38:26;;;;;;;10.70;4.43;;;;;;;;;;6038903;23;20230;-47
2022/03/06 10:40:52;;;;;;;10.48;4.78;;;;;;;;;;6032576;23;20017;-47
2022/03/06 10:43:23;;;;;;;8.88;4.30;;;;;;;;;;6032486;23;20040;-47
2022/03/06 10:45:49;;;;;;;8.63;4.57;;;;;;;;;;6034329;23;20026;-49
2022/03/06 10:48:15;;;;;;;9.25;5.55;;;;;;;;;;6031585;23;20015;-46
2022/03/06 10:50:40;;;;;;;16.58;5.38;;;;;;;;;;6035569;23;20331;-47
2022/03/06 10:53:18;;;;;;;11.02;5.25;;;;;;;;;;6030730;23;20150;-49
2022/03/06 10:55:44;;;;;;;14.52;5.75;;;;;;;;;;6032980;23;20016;-47
2022/03/06 10:58:10;;;;;;;14.55;5.30;;;;;;;;;;6033010;23;20787;-47
2022/03/06 11:00:35;;;;;;;11.18;4.85;;;;;;;;;;6033522;23;20067;-47
2022/03/06 11:03:03;;;;;;;10.20;4.45;;;;;;;;;;6033200;23;20015;-47
2022/03/06 11:05:28;;;;;;;7.30;4.97;;;;;;;;;;6028826;23;20022;-47
2022/03/06 11:07:54;;;;;;;11.30;5.40;;;;;;;;;;6033093;23;20019;-49
2022/03/06 11:10:19;;;;;;;8.75;4.13;;;;;;;;;;6030196;23;20039;-47
2022/03/06 11:12:44;;;;;;;6.47;4.82;;;;;;;;;;6034902;23;20019;-46
2022/03/06 11:15:10;;;;;;;8.00;4.57;;;;;;;;;;6033307;23;20864;-49
2022/03/06 11:17:35;;;;;;;8.65;5.18;;;;;;;;;;6038034;23;20035;-46
2022/03/06 11:20:01;;;;;;;9.05;4.70;;;;;;;;;;6033986;23;20039;-46
2022/03/06 11:22:55;;;;;;;5.53;4.47;;;;;;;;;;6035591;23;20039;-47
2022/03/06 11:25:23;;;;;;;15.95;4.32;;;;;;;;;;6016751;23;21012;-48
2022/03/06 11:27:48;;;;;;;11.55;4.07;;;;;;;;;;6037742;23;20051;-47
2022/03/06 11:30:18;;;;;;;12.88;4.63;;;;;;;;;;6031290;23;20039;-48
2022/03/06 11:32:45;;;;;;;8.80;4.75;;;;;;;;;;6035728;23;20597;-47
2022/03/06 11:35:15;;;;;;;6.80;4.82;;;;;;;;;;6033581;23;20038;-46
2022/03/06 11:37:51;;;;;;;11.75;3.83;;;;;;;;;;6038289;23;20022;-46
2022/03/06 11:40:37;;;;;;;10.52;3.65;;;;;;;;;;6036585;23;20023;-47
2022/03/06 11:43:03;;;;;;;8.05;3.45;;;;;;;;;;6036232;23;20019;-45
2022/03/06 11:45:47;;;;;;;11.80;5.63;;;;;;;;;;6038436;23;20046;-47
2022/03/06 11:48:23;;;;;;;6.93;4.55;;;;;;;;;;6036161;23;20019;-49
2022/03/06 11:51:07;;;;;;;5.70;4.10;;;;;;;;;;6038810;23;20061;-49
2022/03/06 11:53:52;;;;;;;6.82;4.00;;;;;;;;;;6037257;23;20033;-47
2022/03/06 11:56:33;;;;;;;7.53;3.97;;;;;;;;;;6017639;23;20015;-48
2022/03/06 11:59:06;;;;;;;7.18;4.38;;;;;;;;;;6035397;23;20011;-49
2022/03/06 12:01:35;;;;;;;8.05;4.60;;;;;;;;;;6038176;23;20150;-48
2022/03/06 12:04:07;;;;;;;10.98;4.13;;;;;;;;;;6036099;23;20151;-48
2022/03/06 12:06:39;;;;;;;6.85;4.20;;;;;;;;;;6037917;23;20011;-45
2022/03/06 12:09:14;;;;;;;9.45;4.10;;;;;;;;;;6036403;23;20019;-45
2022/03/06 12:11:40;;;;;;;7.50;4.28;;;;;;;;;;6037124;23;20075;-46
2022/03/06 12:14:13;;;;;;;6.88;3.47;;;;;;;;;;6037429;23;20027;-46
2022/03/06 12:16:58;;;;;;;7.18;4.03;;;;;;;;;;6037548;23;20019;-47
2022/03/06 12:19:24;;;;;;;9.02;4.03;;;;;;;;;;5993219;23;20015;-46
2022/03/06 12:21:49;;;;;;;6.50;3.80;;;;;;;;;;6035934;23;20026;-49
2022/03/06 12:24:26;;;;;;;11.55;4.40;;;;;;;;;;6036884;23;20079;-46
2022/03/06 12:26:52;;;;;;;9.25;4.15;;;;;;;;;;6036116;23;20015;-48
2022/03/06 12:29:36;;;;;;;9.02;4.03;;;;;;;;;;6038047;23;20015;-45
2022/03/06 12:32:21;;;;;;;11.02;4.68;;;;;;;;;;6038030;23;20244;-46
2022/03/06 12:34:46;;;;;;;8.52;3.97;;;;;;;;;;6034947;23;20019;-48
2022/03/06 12:37:12;;;;;;;5.05;3.88;;;;;;;;;;6037033;23;20556;-48
2022/03/06 12:39:37;;;;;;;10.25;4.00;;;;;;;;;;6056471;23;20039;-48
2022/03/06 12:42:03;;;;;;;9.38;4.05;;;;;;;;;;6037197;23;20660;-50
2022/03/06 12:44:30;;;;;;;8.73;4.80;;;;;;;;;;6036567;23;20394;-47
2022/03/06 12:46:56;;;;;;;13.45;5.22;;;;;;;;;;6035811;23;20022;-50
2022/03/06 12:49:23;;;;;;;8.13;4.43;;;;;;;;;;6037866;23;20027;-46
2022/03/06 12:51:50;;;;;;;11.60;4.28;;;;;;;;;;6035514;23;20557;-48
2022/03/06 12:54:17;;;;;;;9.20;4.72;;;;;;;;;;6037809;23;20060;-48
2022/03/06 12:56:42;;;;;;;6.85;4.13;;;;;;;;;;6035833;23;20025;-48
2022/03/06 12:59:09;;;;;;;10.85;4.45;;;;;;;;;;6037709;23;20640;-52
2022/03/06 13:01:35;;;;;;;7.03;4.45;;;;;;;;;;6036722;23;20003;-46
2022/03/06 13:04:01;;;;;;;5.00;3.38;;;;;;;;;;6036997;23;20019;-48
2022/03/06 13:06:27;;;;;;;13.05;3.53;;;;;;;;;;6038926;23;20011;-47
2022/03/06 13:08:52;;;;;;;4.72;3.22;;;;;;;;;;6026989;23;20026;-47
2022/03/06 13:11:18;;;;;;;3.72;3.10;;;;;;;;;;6029123;23;20015;-47
2022/03/06 13:13:43;;;;;;;9.05;4.03;;;;;;;;;;6038134;23;20030;-45
2022/03/06 13:16:08;;;;;;;5.20;3.50;;;;;;;;;;6032351;23;20015;-47
2022/03/06 13:18:35;;;;;;;12.65;3.90;;;;;;;;;;6037663;23;20038;-47
2022/03/06 13:21:00;;;;;;;8.93;3.97;;;;;;;;;;6035132;23;20020;-47
2022/03/06 13:23:25;;;;;;;6.53;3.33;;;;;;;;;;6036537;23;20016;-46
2022/03/06 13:25:51;;;;;;;8.75;3.47;;;;;;;;;;6029580;23;20071;-48
2022/03/06 13:28:16;;;;;;;6.35;3.45;;;;;;;;;;6031664;23;20026;-46
2022/03/06 13:30:42;;;;;;;4.70;3.53;;;;;;;;;;6031579;23;20523;-47
2022/03/06 13:33:07;;;;;;;8.05;4.28;;;;;;;;;;6033745;23;20038;-49
2022/03/06 13:35:36;;;;;;;5.53;3.08;;;;;;;;;;6031173;23;20027;-47
2022/03/06 13:38:02;;;;;;;6.55;3.00;;;;;;;;;;6032844;23;20023;-47
2022/03/06 13:40:30;;;;;;;11.82;3.60;;;;;;;;;;6031265;23;20022;-50
2022/03/06 13:42:55;;;;;;;5.03;3.47;;;;;;;;;;6033641;23;20035;-48
2022/03/06 13:45:21;;;;;;;8.05;2.97;;;;;;;;;;6031831;23;20043;-47
2022/03/06 13:47:48;;;;;;;8.38;3.00;;;;;;;;;;6034445;23;20421;-47
2022/03/06 13:50:26;;;;;;;4.15;3.00;;;;;;;;;;6051931;23;20034;-47
2022/03/06 13:52:52;;;;;;;5.95;3.58;;;;;;;;;;6031116;23;20064;-46
2022/03/06 13:55:18;;;;;;;7.90;3.28;;;;;;;;;;6034353;23;20047;-47
2022/03/06 13:57:59;;;;;;;9.02;3.60;;;;;;;;;;6033161;23;20015;-48
2022/03/06 14:00:25;;;;;;;4.57;3.53;;;;;;;;;;6032845;23;20053;-46
2022/03/06 14:02:57;;;;;;;12.35;3.85;;;;;;;;;;6031341;23;20039;-47
2022/03/06 14:05:27;;;;;;;10.32;4.05;;;;;;;;;;6035030;23;20019;-46
2022/03/06 14:07:52;;;;;;;12.05;4.20;;;;;;;;;;6036426;23;20027;-48
2022/03/06 14:10:18;;;;;;;4.38;3.50;;;;;;;;;;6035367;23;20025;-48
2022/03/06 14:12:46;;;;;;;17.48;4.35;;;;;;;;;;6036451;23;20011;-46
2022/03/06 14:15:21;;;;;;;4.80;3.35;;;;;;;;;;6037424;23;20051;-49
2022/03/06 14:17:53;;;;;;;4.53;2.78;;;;;;;;;;6034766;23;20012;-45
2022/03/06 14:20:18;;;;;;;7.43;3.20;;;;;;;;;;6036877;23;20015;-46
2022/03/06 14:22:43;;;;;;;11.38;3.13;;;;;;;;;;6033643;23;20022;-47
2022/03/06 14:25:09;;;;;;;6.18;2.92;;;;;;;;;;6034033;23;20522;-48
2022/03/06 14:27:34;;;;;;;7.45;2.83;;;;;;;;;;6032698;23;20007;-46
2022/03/06 14:29:59;;;;;;;5.95;3.40;;;;;;;;;;6036178;23;20747;-46
2022/03/06 14:32:25;;;;;;;4.50;2.80;;;;;;;;;;6033557;23;20027;-47